Time;durP1;ratioP1;P1;durP2;ratioP2;P2;SDS_P1;SDS_P2;PMS_P1;PMS_P2;Temp;Humidity;BMP_temperature;BMP_pressure;BME280_temperature;BME280_humidity;BME280_pressure;Samples;Min_cycle;Max_cycle;Signal;HPM_P1;HPM_P2
2022/01/16 00:00:54;;;;;;;15.35;9.95;;;;;;;-0.85;58.71;96144.69;5011324;28;20113;-68
2022/01/16 00:06:03;;;;;;;21.08;11.93;;;;;;;-0.94;59.41;96125.28;5011645;28;20173;-67
2022/01/16 00:08:29;;;;;;;14.90;9.13;;;;;;;-0.95;59.39;96114.31;5010208;28;20109;-69
2022/01/16 00:10:54;;;;;;;19.63;10.52;;;;;;;-0.94;59.27;96095.72;5010983;28;20045;-68
2022/01/16 00:13:20;;;;;;;13.68;8.60;;;;;;;-0.94;60.16;96105.84;5011420;28;20033;-66
2022/01/16 00:15:45;;;;;;;23.02;10.90;;;;;;;-1.05;60.84;96091.53;5011357;28;20060;-67
2022/01/16 00:18:20;;;;;;;12.88;8.32;;;;;;;-0.77;60.73;96137.91;5010551;28;20073;-69
2022/01/16 00:20:46;;;;;;;18.70;10.30;;;;;;;-0.86;61.33;96143.84;5010929;28;20049;-69
2022/01/16 00:23:11;;;;;;;18.27;11.27;;;;;;;-0.89;60.98;96150.59;5010777;28;20437;-69
2022/01/16 00:25:37;;;;;;;20.23;12.68;;;;;;;-0.75;61.25;96197.03;5010948;28;20018;-66
2022/01/16 00:28:03;;;;;;;20.63;11.18;;;;;;;-0.79;62.48;96202.94;5010884;28;20149;-67
2022/01/16 00:30:28;;;;;;;19.45;10.75;;;;;;;-0.87;63.11;96225.75;5010726;28;20025;-69
2022/01/16 00:32:59;;;;;;;17.42;9.02;;;;;;;-0.94;64.53;96231.63;5010557;28;20637;-67
2022/01/16 00:35:25;;;;;;;18.70;10.27;;;;;;;-0.84;63.87;96146.38;5009930;28;20026;-68
2022/01/16 00:37:52;;;;;;;16.42;10.10;;;;;;;-0.89;64.66;96110.09;5010036;28;20026;-69
2022/01/16 00:40:18;;;;;;;20.48;11.85;;;;;;;-0.95;65.52;96191.97;5010249;28;20511;-67
2022/01/16 00:42:43;;;;;;;20.90;12.40;;;;;;;-1.00;65.74;96141.31;5010824;28;20025;-65
2022/01/16 00:45:09;;;;;;;18.52;12.52;;;;;;;-1.10;65.91;96010.50;5010093;28;20107;-70
2022/01/16 00:47:35;;;;;;;20.95;11.02;;;;;;;-0.89;65.68;96087.28;5010531;28;20033;-69
2022/01/16 00:50:00;;;;;;;20.88;11.50;;;;;;;-1.01;65.95;96035.81;5010199;28;20030;-69
2022/01/16 00:52:26;;;;;;;21.00;10.35;;;;;;;-0.81;66.72;95981.75;5010471;28;20645;-68
2022/01/16 00:54:51;;;;;;;20.83;11.32;;;;;;;-0.91;66.32;96020.63;5010486;28;20377;-66
2022/01/16 00:57:17;;;;;;;21.23;12.20;;;;;;;-0.84;66.44;96024.81;5009520;28;20050;-64
2022/01/16 00:59:42;;;;;;;22.02;13.43;;;;;;;-0.90;66.53;96022.28;5010248;28;20045;-67
2022/01/16 01:02:07;;;;;;;19.35;11.88;;;;;;;-0.95;67.05;96047.66;5010029;28;20026;-63
2022/01/16 01:04:33;;;;;;;14.25;8.95;;;;;;;-0.85;67.66;96099.97;5010095;28;20076;-65
2022/01/16 01:06:58;;;;;;;20.73;10.20;;;;;;;-0.88;67.20;96089.81;5009897;28;20053;-68
2022/01/16 01:09:24;;;;;;;20.80;11.88;;;;;;;-0.96;67.25;96056.91;5009459;28;20032;-68
2022/01/16 01:11:50;;;;;;;18.23;11.18;;;;;;;-1.06;67.68;96047.66;5010044;28;20037;-68
2022/01/16 01:14:38;;;;;;;23.33;13.43;;;;;;;-0.94;67.78;96118.50;5009992;28;20453;-67
2022/01/16 01:17:07;;;;;;;18.85;12.20;;;;;;;-1.09;67.05;96062.84;5008787;28;20056;-68
2022/01/16 01:19:34;;;;;;;19.05;11.98;;;;;;;-1.08;67.16;96053.53;5009868;28;20117;-68
2022/01/16 01:22:00;;;;;;;22.25;13.07;;;;;;;-0.93;66.80;96082.22;5009243;28;20787;-68
2022/01/16 01:24:27;;;;;;;20.67;12.23;;;;;;;-0.94;67.03;96067.88;5008573;28;20041;-68
2022/01/16 01:29:37;;;;;;;18.40;11.27;;;;;;;-0.99;67.06;96104.19;5009142;28;20462;-67
2022/01/16 01:32:03;;;;;;;19.00;11.55;;;;;;;-1.06;67.09;96078.03;5009587;28;20033;-69
2022/01/16 01:34:30;;;;;;;20.40;11.82;;;;;;;-0.91;67.40;96078.88;5008960;28;20026;-66
2022/01/16 01:36:55;;;;;;;20.30;12.07;;;;;;;-0.96;66.92;96101.66;5009575;28;20034;-69
2022/01/16 01:39:22;;;;;;;20.40;12.95;;;;;;;-1.12;67.68;96094.03;5009388;28;20022;-70
2022/01/16 01:41:52;;;;;;;19.73;12.07;;;;;;;-1.16;68.14;96119.38;5009302;28;20770;-67
2022/01/16 01:52:41;;;;;;;18.40;11.35;;;;;;;-1.18;68.27;96139.63;4948659;29;20042;-66
2022/01/16 01:55:07;;;;;;;20.88;11.48;;;;;;;-1.03;67.38;96127.78;4948375;28;20491;-65
2022/01/16 01:57:32;;;;;;;21.42;11.77;;;;;;;-1.20;67.33;96127.81;4947583;29;20058;-68
2022/01/16 01:59:58;;;;;;;17.95;12.00;;;;;;;-0.96;67.64;96150.59;4948443;28;20040;-68
2022/01/16 02:02:27;;;;;;;20.80;11.10;;;;;;;-0.96;66.90;96143.00;4948116;29;20098;-68
2022/01/16 02:04:53;;;;;;;20.10;12.27;;;;;;;-0.94;67.80;96137.94;4948211;29;20035;-69
2022/01/16 02:07:18;;;;;;;20.50;11.50;;;;;;;-1.18;66.73;96083.94;4948287;28;20392;-68
2022/01/16 02:09:43;;;;;;;18.98;13.63;;;;;;;-0.86;67.55;96153.13;4947761;28;20036;-68
2022/01/16 02:12:10;;;;;;;19.85;12.43;;;;;;;-1.15;67.56;96126.13;4948119;28;20616;-65
2022/01/16 02:14:53;;;;;;;19.75;11.80;;;;;;;-1.07;68.21;96152.28;4948235;29;20566;-69
2022/01/16 02:35:57;;;;;;;18.48;10.68;;;;;;;-1.06;71.29;96143.00;5008953;28;20496;-67
2022/01/16 02:38:23;;;;;;;19.30;12.20;;;;;;;-1.22;71.20;96127.78;5008429;28;20030;-67
2022/01/16 02:40:57;;;;;;;20.02;11.15;;;;;;;-1.18;72.14;96134.56;5008396;28;20022;-66
2022/01/16 02:43:30;;;;;;;22.02;12.15;;;;;;;-1.18;72.33;96128.63;5008376;28;20220;-69
2022/01/16 02:48:44;;;;;;;21.15;12.77;;;;;;;-1.17;73.63;96137.94;5008668;28;20104;-69
2022/01/16 02:51:10;;;;;;;22.33;13.85;;;;;;;-1.09;72.49;96133.72;5008515;28;20394;-67
2022/01/16 02:53:35;;;;;;;15.55;8.65;;;;;;;-1.00;72.24;96131.19;5008297;28;20451;-66
2022/01/16 02:56:00;;;;;;;16.58;11.68;;;;;;;-0.84;72.22;96126.13;5008368;28;20064;-66
2022/01/16 02:58:26;;;;;;;19.13;11.93;;;;;;;-0.71;71.67;96122.72;5007450;28;20053;-65
2022/01/16 03:00:52;;;;;;;19.02;12.38;;;;;;;-0.79;71.14;96105.03;5008072;28;20064;-64
2022/01/16 03:03:18;;;;;;;19.95;12.02;;;;;;;-0.62;70.81;96117.66;5008164;28;20113;-63
2022/01/16 03:05:43;;;;;;;21.08;12.68;;;;;;;-0.58;70.23;96115.94;5008409;28;20045;-67
2022/01/16 03:08:08;;;;;;;19.27;12.07;;;;;;;-0.52;70.10;96112.56;5008054;28;20038;-70
2022/01/16 03:12:59;;;;;;;17.42;10.98;;;;;;;-0.48;70.06;96116.78;5007813;28;20038;-69
2022/01/16 03:15:27;;;;;;;18.20;11.63;;;;;;;-0.51;70.39;96116.78;5008092;28;20144;-66
2022/01/16 03:23:13;;;;;;;20.30;11.30;;;;;;;-0.48;70.57;96114.25;5008295;28;20084;-69
2022/01/16 03:25:38;;;;;;;24.50;14.20;;;;;;;-0.52;70.76;96115.94;5008224;28;20030;-67
2022/01/16 03:28:04;;;;;;;20.65;13.32;;;;;;;-0.44;70.19;96115.94;5008301;28;20529;-68
2022/01/16 03:30:30;;;;;;;19.17;12.60;;;;;;;-0.41;69.98;96120.97;5007998;28;20413;-66
2022/01/16 03:32:56;;;;;;;15.07;9.32;;;;;;;-0.47;70.28;96111.72;5007856;28;20026;-66
2022/01/16 03:35:21;;;;;;;18.25;12.30;;;;;;;-0.40;70.14;96125.22;5008171;28;20544;-68
2022/01/16 03:37:47;;;;;;;18.73;13.18;;;;;;;-0.43;69.75;96126.03;5007998;28;20030;-67
2022/01/16 03:40:13;;;;;;;21.83;12.43;;;;;;;-0.66;69.79;96092.31;5008047;28;20041;-66
2022/01/16 03:42:39;;;;;;;20.52;12.43;;;;;;;-0.51;69.75;96104.94;5008626;28;20037;-67
2022/01/16 03:45:07;;;;;;;21.95;14.25;;;;;;;-0.37;70.49;96133.63;5007906;28;20037;-69
2022/01/16 03:47:32;;;;;;;23.63;13.98;;;;;;;-0.40;69.77;96141.25;5008081;28;20025;-68
2022/01/16 03:49:58;;;;;;;20.85;13.75;;;;;;;-0.43;69.34;96122.69;5008165;28;20500;-68
2022/01/16 03:52:23;;;;;;;20.13;12.45;;;;;;;-0.43;69.92;96132.81;5007791;28;20037;-69
2022/01/16 03:54:49;;;;;;;18.08;11.02;;;;;;;-0.70;70.29;96099.09;5011220;28;20022;-65
2022/01/16 03:57:14;;;;;;;22.27;13.88;;;;;;;-0.65;70.01;96116.81;5010799;28;20111;-66
2022/01/16 03:59:40;;;;;;;20.95;12.05;;;;;;;-0.55;70.23;96133.69;5011505;28;20029;-64
2022/01/16 04:02:05;;;;;;;20.50;12.98;;;;;;;-0.58;70.16;96136.22;5011264;28;20497;-64
2022/01/16 04:04:31;;;;;;;20.17;13.27;;;;;;;-0.64;70.38;96129.50;5011504;28;20026;-65
2022/01/16 04:06:57;;;;;;;20.55;12.43;;;;;;;-0.53;70.42;96137.06;5011163;28;20151;-63
2022/01/16 04:09:23;;;;;;;20.98;13.70;;;;;;;-0.61;70.40;96132.03;5010875;28;20045;-69
2022/01/16 04:11:53;;;;;;;18.98;11.75;;;;;;;-0.45;69.53;96150.56;5011087;28;20435;-68
2022/01/16 04:17:07;;;;;;;17.08;10.93;;;;;;;-0.34;68.73;96148.00;4988880;28;20433;-67
2022/01/16 04:19:33;;;;;;;20.38;12.90;;;;;;;-0.33;68.59;96143.78;4988948;28;20477;-68
2022/01/16 04:21:58;;;;;;;19.75;13.57;;;;;;;-0.44;68.83;96129.44;4988435;28;20038;-69
2022/01/16 04:24:24;;;;;;;20.73;15.15;;;;;;;-0.53;68.70;96121.00;4988948;28;20510;-68
2022/01/16 04:26:49;;;;;;;22.23;11.15;;;;;;;-0.33;68.62;96164.06;4972563;28;20546;-67
2022/01/16 04:29:14;;;;;;;20.60;12.68;;;;;;;-0.54;68.95;96137.06;4988864;28;20053;-68
2022/01/16 04:31:40;;;;;;;19.42;12.85;;;;;;;-0.63;69.13;96121.03;4988702;28;20035;-66
2022/01/16 04:34:05;;;;;;;22.15;13.45;;;;;;;-0.43;68.96;96153.91;4988121;28;20063;-66
2022/01/16 04:36:31;;;;;;;24.65;15.75;;;;;;;-0.51;68.68;96149.72;4988716;28;20738;-67
2022/01/16 04:38:56;;;;;;;20.77;13.70;;;;;;;-0.32;68.57;96174.19;4988547;28;20084;-69
2022/01/16 04:44:06;;;;;;;28.65;16.80;;;;;;;-0.33;68.31;96162.34;4988527;28;20476;-67
2022/01/16 04:46:33;;;;;;;30.58;19.73;;;;;;;-0.41;67.97;96156.44;4988245;28;20042;-68
2022/01/16 04:49:00;;;;;;;29.40;20.33;;;;;;;-0.70;68.52;96143.84;4988521;28;20033;-68
2022/01/16 04:51:27;;;;;;;33.13;20.42;;;;;;;-0.47;69.14;96167.47;4988352;28;20030;-67
2022/01/16 04:53:53;;;;;;;29.33;20.23;;;;;;;-0.42;68.06;96163.22;4997180;28;20064;-67
2022/01/16 04:56:18;;;;;;;32.90;21.60;;;;;;;-0.53;68.39;96161.56;5010439;28;20021;-67
2022/01/16 04:58:44;;;;;;;33.65;20.63;;;;;;;-0.46;68.39;96158.16;5009679;28;20041;-67
2022/01/16 05:01:10;;;;;;;35.83;20.90;;;;;;;-0.44;68.33;96166.63;5010409;28;20105;-68
2022/01/16 05:03:37;;;;;;;36.63;20.77;;;;;;;-0.72;68.59;96130.31;5008715;28;20417;-68
2022/01/16 05:06:04;;;;;;;37.13;20.85;;;;;;;-0.96;68.26;96112.63;5009192;28;20490;-68
2022/01/16 05:08:30;;;;;;;30.55;20.38;;;;;;;-0.59;68.61;96165.78;5009922;28;20029;-68
2022/01/16 05:10:57;;;;;;;34.85;21.60;;;;;;;-0.81;68.41;96129.47;5009744;28;20026;-67
2022/01/16 05:18:43;;;;;;;38.85;21.80;;;;;;;-0.68;67.71;96155.66;5009761;28;20044;-68
2022/01/16 05:21:09;;;;;;;38.80;22.33;;;;;;;-0.71;68.43;96159.88;5009459;28;20030;-67
2022/01/16 05:23:35;;;;;;;33.47;22.80;;;;;;;-0.82;68.17;96135.41;5010191;28;20025;-67
2022/01/16 05:26:01;;;;;;;31.02;20.15;;;;;;;-0.66;67.99;96161.56;5009870;28;20017;-68
2022/01/16 05:28:28;;;;;;;34.65;20.10;;;;;;;-0.59;68.87;96163.25;5009831;28;20022;-65
2022/01/16 05:30:54;;;;;;;30.35;20.20;;;;;;;-0.57;68.44;96156.50;5009695;28;20130;-66
2022/01/16 05:33:19;;;;;;;33.50;19.80;;;;;;;-0.50;68.88;96156.50;5009426;28;20084;-69
2022/01/16 05:35:45;;;;;;;33.60;19.63;;;;;;;-0.53;68.22;96144.66;5009575;28;20097;-66
2022/01/16 05:38:11;;;;;;;29.65;21.17;;;;;;;-0.39;67.44;96170.81;5009359;28;20728;-65
2022/01/16 05:40:37;;;;;;;33.92;19.63;;;;;;;-0.83;67.51;96090.66;5009782;28;20109;-67
2022/01/16 05:43:02;;;;;;;29.92;21.25;;;;;;;-0.23;66.98;96166.56;5009515;28;20105;-67
2022/01/16 05:45:29;;;;;;;31.95;19.30;;;;;;;-0.29;67.00;96141.22;5009203;28;20053;-66
2022/01/16 05:47:55;;;;;;;32.90;21.15;;;;;;;-0.11;66.76;96164.84;5024494;28;20057;-64
2022/01/16 05:50:22;;;;;;;33.67;19.83;;;;;;;-0.04;66.50;96167.34;5009360;28;20105;-66
2022/01/16 05:52:47;;;;;;;25.77;17.02;;;;;;;-0.29;66.30;96128.56;5007165;28;20022;-68
2022/01/16 05:55:13;;;;;;;30.17;18.45;;;;;;;-0.05;66.67;96160.59;5000350;28;20404;-68
2022/01/16 05:57:39;;;;;;;30.02;17.60;;;;;;;0.02;66.25;96181.72;5008043;28;20094;-69
2022/01/16 06:00:06;;;;;;;30.42;20.50;;;;;;;-0.02;66.21;96187.63;5007575;28;20536;-66
2022/01/16 06:02:32;;;;;;;34.17;19.85;;;;;;;-0.04;66.07;96172.41;5009340;28;20180;-66
2022/01/16 06:04:57;;;;;;;31.40;18.48;;;;;;;0.09;65.73;96187.63;5009272;28;20038;-66
2022/01/16 06:07:23;;;;;;;36.83;24.23;;;;;;;-0.32;65.92;96151.38;5009039;28;20034;-67
2022/01/16 06:09:48;;;;;;;34.65;21.20;;;;;;;-0.27;66.39;96179.25;5008646;28;20034;-63
2022/01/16 06:12:14;;;;;;;41.28;24.48;;;;;;;-0.41;67.22;96166.59;5009237;28;20095;-64
2022/01/16 06:14:39;;;;;;;37.30;24.25;;;;;;;-0.39;66.90;96159.84;5008948;28;20026;-64
2022/01/16 06:17:05;;;;;;;36.10;24.20;;;;;;;-0.26;66.46;96183.50;5008564;28;20033;-65
2022/01/16 06:19:30;;;;;;;38.22;24.02;;;;;;;-0.34;66.31;96192.75;5009000;28;20083;-63
2022/01/16 06:21:56;;;;;;;40.80;25.42;;;;;;;-0.50;67.03;96187.72;5008311;28;20026;-63
2022/01/16 06:24:22;;;;;;;45.97;26.92;;;;;;;-0.33;66.93;96185.16;5009305;28;20113;-67
2022/01/16 06:26:49;;;;;;;47.00;29.33;;;;;;;-0.31;66.46;96177.56;5007384;28;20040;-69
2022/01/16 06:29:16;;;;;;;51.13;30.58;;;;;;;-0.35;65.87;96197.00;5008760;28;20073;-69
2022/01/16 06:31:42;;;;;;;52.88;31.50;;;;;;;-0.46;66.81;96208.84;5008723;28;20065;-68
2022/01/16 06:34:07;;;;;;;54.72;32.15;;;;;;;-0.48;67.22;96213.91;5008351;28;20107;-67
2022/01/16 06:36:34;;;;;;;51.25;30.73;;;;;;;-0.51;66.68;96225.75;5008820;28;20026;-68
2022/01/16 06:39:03;;;;;;;52.25;31.17;;;;;;;-0.35;66.33;96219.81;5008551;28;20109;-66
2022/01/16 06:41:28;;;;;;;51.45;29.65;;;;;;;-0.31;66.03;96225.72;5008854;28;20105;-67
2022/01/16 06:43:53;;;;;;;49.40;29.70;;;;;;;-0.45;66.32;96208.00;5008565;28;20553;-71
2022/01/16 06:46:19;;;;;;;43.30;26.58;;;;;;;-0.12;66.06;96227.38;5008217;28;20029;-68
2022/01/16 06:48:44;;;;;;;50.63;28.90;;;;;;;-0.02;65.30;96215.53;5008510;28;20378;-68
2022/01/16 06:51:10;;;;;;;46.00;29.52;;;;;;;-0.05;64.77;96203.72;5008556;28;20045;-68
2022/01/16 06:53:35;;;;;;;48.25;28.88;;;;;;;-0.11;64.39;96190.22;5009129;28;20548;-69
2022/01/16 06:56:01;;;;;;;45.22;28.27;;;;;;;-0.20;65.44;96222.34;5008592;28;20109;-65
2022/01/16 06:58:27;;;;;;;49.40;28.98;;;;;;;-0.26;65.05;96186.03;5007734;28;20141;-68
2022/01/16 07:00:52;;;;;;;45.40;27.45;;;;;;;-0.04;64.71;96235.81;5008238;28;20056;-68
2022/01/16 07:03:18;;;;;;;50.10;26.92;;;;;;;0.06;64.26;96234.09;5008652;28;20041;-69
2022/01/16 07:05:44;;;;;;;43.97;25.63;;;;;;;0.14;63.91;96232.41;5008254;28;20060;-69
2022/01/16 07:08:09;;;;;;;40.47;26.63;;;;;;;0.07;63.92;96233.28;5008499;28;20108;-68
2022/01/16 07:10:35;;;;;;;44.25;27.38;;;;;;;0.12;64.47;96234.09;5008120;28;20022;-67
2022/01/16 07:13:01;;;;;;;48.58;27.95;;;;;;;0.06;64.48;96238.34;5008214;28;20552;-69
2022/01/16 07:15:27;;;;;;;44.15;27.70;;;;;;;0.11;63.82;96245.09;5008485;28;20022;-66
2022/01/16 07:17:52;;;;;;;47.20;29.65;;;;;;;-0.04;63.86;96207.09;5008118;28;20531;-68
2022/01/16 07:20:17;;;;;;;42.20;27.05;;;;;;;0.27;63.45;96239.97;5008331;28;20109;-70
2022/01/16 07:22:44;;;;;;;42.58;26.35;;;;;;;0.23;63.44;96233.22;5007710;28;20382;-67
2022/01/16 07:25:11;;;;;;;38.88;26.40;;;;;;;0.33;63.27;96227.28;5008562;28;20026;-67
2022/01/16 07:27:36;;;;;;;45.17;26.42;;;;;;;0.54;62.49;96232.28;5008410;28;20033;-68
2022/01/16 07:30:02;;;;;;;41.72;28.40;;;;;;;0.52;62.69;96243.25;5011767;28;20088;-68
2022/01/16 07:32:28;;;;;;;45.88;27.85;;;;;;;0.27;63.22;96247.59;5012037;28;20487;-66
2022/01/16 07:34:53;;;;;;;45.70;29.40;;;;;;;0.31;63.35;96251.78;5011414;28;20034;-69
2022/01/16 07:37:19;;;;;;;44.60;29.05;;;;;;;0.35;63.08;96245.88;5012023;28;20037;-69
2022/01/16 07:39:44;;;;;;;49.67;28.42;;;;;;;0.54;62.79;96251.72;5011742;28;20030;-67
2022/01/16 07:42:10;;;;;;;39.60;26.42;;;;;;;0.57;62.23;96261.84;5011664;28;20113;-68
2022/01/16 07:44:35;;;;;;;47.00;28.75;;;;;;;0.55;62.67;96241.56;5011815;28;20080;-67
2022/01/16 07:47:01;;;;;;;43.85;28.10;;;;;;;0.48;62.23;96237.38;5011294;28;20025;-67
2022/01/16 07:49:26;;;;;;;54.40;31.27;;;;;;;0.53;62.79;96252.59;5011516;28;20456;-69
2022/01/16 07:51:51;;;;;;;46.03;29.02;;;;;;;0.46;62.47;96234.00;5011684;28;20040;-67
2022/01/16 07:54:18;;;;;;;46.78;28.92;;;;;;;0.59;62.25;96261.84;5043337;28;20117;-66
2022/01/16 07:56:44;;;;;;;51.83;30.10;;;;;;;0.39;62.48;96267.00;5011608;28;20452;-67
2022/01/16 07:59:09;;;;;;;45.38;29.42;;;;;;;0.60;62.28;96269.47;5010975;28;20041;-67
2022/01/16 08:01:35;;;;;;;46.63;28.25;;;;;;;0.14;61.68;96174.06;5011264;28;20034;-69
2022/01/16 08:04:00;;;;;;;48.25;29.83;;;;;;;0.72;62.00;96273.63;5011405;28;20026;-68
2022/01/16 08:06:26;;;;;;;46.80;28.83;;;;;;;0.77;61.59;96271.94;5011245;28;20058;-68
2022/01/16 08:08:52;;;;;;;50.95;31.13;;;;;;;1.21;60.62;96270.00;5011010;28;20180;-68
2022/01/16 08:11:17;;;;;;;47.97;28.38;;;;;;;0.52;60.29;96142.56;5009341;28;20692;-67
2022/01/16 08:13:43;;;;;;;39.90;25.20;;;;;;;1.21;59.90;96237.81;5010873;28;20022;-67
2022/01/16 08:16:08;;;;;;;46.40;29.15;;;;;;;1.37;59.30;96232.63;5010202;28;20511;-65
2022/01/16 08:18:34;;;;;;;45.67;29.73;;;;;;;1.44;59.42;96227.50;5010516;28;20109;-64
2022/01/16 08:21:00;;;;;;;36.38;25.05;;;;;;;1.72;57.91;96242.53;5010141;28;20064;-68
2022/01/16 08:23:25;;;;;;;47.20;29.08;;;;;;;1.75;57.67;96228.94;5008160;28;20018;-67
2022/01/16 08:25:52;;;;;;;38.70;24.92;;;;;;;2.04;56.64;96243.91;5006215;28;20044;-69
2022/01/16 08:28:19;;;;;;;39.78;27.33;;;;;;;1.92;56.79;96236.38;5009957;28;20037;-67
2022/01/16 08:30:45;;;;;;;41.75;27.67;;;;;;;1.68;57.28;96222.22;5018147;28;20393;-65
2022/01/16 08:33:11;;;;;;;39.92;25.92;;;;;;;1.82;56.90;96207.66;5017165;28;20034;-66
2022/01/16 08:35:37;;;;;;;43.95;28.35;;;;;;;2.38;55.74;96241.84;5010189;28;20017;-64
2022/01/16 08:38:02;;;;;;;38.45;26.02;;;;;;;2.65;54.80;96250.03;5010129;28;20096;-63
2022/01/16 08:40:28;;;;;;;39.13;25.85;;;;;;;2.27;55.01;96209.75;5010400;28;20469;-67
2022/01/16 08:42:53;;;;;;;38.60;25.20;;;;;;;2.32;55.40;96238.53;5010184;28;20040;-69
2022/01/16 08:45:19;;;;;;;40.17;25.25;;;;;;;2.48;55.63;96247.69;5010198;28;20018;-70
2022/01/16 08:47:45;;;;;;;42.97;26.80;;;;;;;3.61;52.41;96238.50;5010352;28;20473;-70
2022/01/16 08:50:12;;;;;;;30.58;19.10;;;;;;;6.06;46.04;96236.00;5010367;28;20036;-67
2022/01/16 08:52:39;;;;;;;28.33;20.30;;;;;;;8.29;42.05;96221.59;5009403;28;20032;-65
2022/01/16 08:55:06;;;;;;;27.58;18.83;;;;;;;10.79;35.94;96206.63;5009197;28;20032;-69
2022/01/16 08:57:31;;;;;;;23.45;16.80;;;;;;;12.03;33.04;96199.09;5008909;28;20045;-69
2022/01/16 08:59:57;;;;;;;19.90;13.73;;;;;;;12.73;31.72;96186.06;5007381;28;20034;-67
2022/01/16 09:02:22;;;;;;;20.05;14.25;;;;;;;14.73;28.24;96153.16;5006698;28;20128;-71
2022/01/16 09:04:47;;;;;;;21.67;16.23;;;;;;;15.37;26.82;96150.03;5007338;28;20139;-70
2022/01/16 09:07:13;;;;;;;20.80;13.82;;;;;;;14.92;27.58;96129.50;5006639;28;20033;-67
2022/01/16 09:09:39;;;;;;;18.80;14.45;;;;;;;16.96;24.90;96147.28;5006600;28;20057;-69
2022/01/16 09:12:05;;;;;;;21.05;15.30;;;;;;;17.42;23.52;96181.31;5006519;28;20049;-67
2022/01/16 09:14:30;;;;;;;21.08;15.68;;;;;;;17.89;23.54;96175.38;5006887;28;20154;-70
2022/01/16 09:16:56;;;;;;;18.25;13.43;;;;;;;18.12;23.04;96140.59;5006250;28;20121;-70
2022/01/16 09:19:21;;;;;;;18.80;15.73;;;;;;;19.08;21.42;96136.69;5006981;28;20038;-70
2022/01/16 09:21:47;;;;;;;21.00;16.73;;;;;;;19.07;21.65;96157.72;5006094;28;20029;-71
2022/01/16 09:24:12;;;;;;;16.63;14.52;;;;;;;20.63;20.27;96140.66;5006620;28;20540;-69
2022/01/16 09:26:38;;;;;;;18.42;14.27;;;;;;;19.22;20.85;96163.53;5006566;28;20037;-68
2022/01/16 09:29:03;;;;;;;18.08;13.75;;;;;;;19.39;20.38;96130.81;5006600;28;20140;-69
2022/01/16 09:31:29;;;;;;;14.90;11.40;;;;;;;21.01;19.17;96136.50;5006703;28;20394;-71
2022/01/16 09:33:56;;;;;;;14.95;11.80;;;;;;;22.68;17.61;96129.44;5006342;28;20513;-68
2022/01/16 09:36:22;;;;;;;20.30;13.55;;;;;;;23.28;16.92;96144.78;5007095;28;20037;-66
2022/01/16 09:38:47;;;;;;;20.80;13.52;;;;;;;24.15;16.30;96111.69;5006305;28;20103;-71
2022/01/16 09:41:14;;;;;;;17.42;13.90;;;;;;;23.56;16.48;96124.50;5006783;28;20044;-71
2022/01/16 09:43:39;;;;;;;20.05;14.40;;;;;;;22.98;16.83;96132.75;5005655;28;20113;-69
2022/01/16 09:46:05;;;;;;;15.40;12.80;;;;;;;20.34;19.11;96085.47;5006078;28;20503;-70
2022/01/16 09:48:31;;;;;;;17.35;13.32;;;;;;;21.98;17.86;96090.31;5006330;28;20037;-68
2022/01/16 09:50:56;;;;;;;17.67;12.88;;;;;;;20.81;18.58;96126.91;5006049;28;20034;-70
2022/01/16 09:53:23;;;;;;;14.02;12.10;;;;;;;21.09;18.13;96135.84;5006009;28;20056;-69
2022/01/16 09:55:49;;;;;;;12.30;10.88;;;;;;;21.92;17.79;96111.88;5004745;28;20095;-70
2022/01/16 09:58:15;;;;;;;13.48;11.18;;;;;;;22.82;16.73;96118.41;5004709;28;20065;-70
2022/01/16 10:00:40;;;;;;;13.93;11.35;;;;;;;23.66;16.27;96114.72;5005872;28;20030;-72
2022/01/16 10:03:06;;;;;;;16.60;11.20;;;;;;;24.18;15.80;96095.53;5005683;28;20097;-72
2022/01/16 10:05:38;;;;;;;15.90;12.48;;;;;;;24.93;15.50;96096.78;5005450;28;20061;-72
2022/01/16 10:08:04;;;;;;;15.68;12.18;;;;;;;24.93;14.94;96099.41;5005887;28;20072;-72
2022/01/16 10:10:33;;;;;;;14.27;11.40;;;;;;;22.83;16.12;96100.84;5004604;28;20100;-72
2022/01/16 10:13:07;;;;;;;13.55;11.63;;;;;;;23.44;16.08;96108.09;5005945;28;20060;-72
2022/01/16 10:15:34;;;;;;;13.57;11.90;;;;;;;23.17;16.02;96106.38;5005722;28;20029;-67
2022/01/16 10:18:01;;;;;;;13.85;11.48;;;;;;;23.08;16.19;96073.03;5005934;28;20038;-72
2022/01/16 10:20:38;;;;;;;15.10;11.60;;;;;;;23.53;16.26;96074.81;5005366;28;20040;-68
2022/01/16 10:23:16;;;;;;;15.90;11.75;;;;;;;22.99;16.16;96055.47;5005349;28;20038;-71
2022/01/16 10:25:47;;;;;;;13.10;11.07;;;;;;;21.11;17.85;96092.75;5003564;28;20030;-71
2022/01/16 10:28:18;;;;;;;13.23;11.32;;;;;;;22.43;16.74;96096.72;5004100;28;20222;-72
2022/01/16 10:30:56;;;;;;;14.85;11.98;;;;;;;21.70;17.43;96087.59;5005071;28;20045;-71
2022/01/16 10:33:25;;;;;;;13.57;10.75;;;;;;;24.14;15.28;96075.78;5004902;28;20033;-73
2022/01/16 10:35:53;;;;;;;16.60;12.95;;;;;;;24.48;15.01;96066.22;5005121;28;20080;-71
2022/01/16 10:38:25;;;;;;;14.05;12.25;;;;;;;24.14;15.22;96065.22;5005048;28;20033;-71
2022/01/16 10:40:52;;;;;;;13.30;11.90;;;;;;;24.31;15.33;96060.88;5004433;28;20474;-69
2022/01/16 10:43:21;;;;;;;14.07;11.40;;;;;;;23.90;15.87;96055.34;5005006;28;20033;-66
2022/01/16 10:45:51;;;;;;;15.00;11.55;;;;;;;24.18;15.43;96061.28;5001760;28;20056;-72
2022/01/16 10:48:24;;;;;;;16.60;12.70;;;;;;;25.58;14.81;96059.16;5005134;28;20436;-72
2022/01/16 10:50:51;;;;;;;13.65;11.80;;;;;;;25.49;14.12;96054.84;5003216;28;21077;-68
2022/01/16 10:53:19;;;;;;;13.38;11.02;;;;;;;21.63;17.03;96066.31;5004717;28;20029;-67
2022/01/16 10:56:03;;;;;;;12.25;10.93;;;;;;;21.36;17.12;96058.28;5002574;28;20042;-70
2022/01/16 10:58:38;;;;;;;14.50;11.25;;;;;;;21.02;17.37;96035.06;5003876;28;20058;-70
2022/01/16 11:01:13;;;;;;;14.07;11.07;;;;;;;23.26;15.88;96046.75;5003885;28;20042;-70
2022/01/16 11:03:41;;;;;;;17.08;13.43;;;;;;;23.59;15.91;96037.31;5011581;28;20535;-70
2022/01/16 11:06:06;;;;;;;16.45;12.73;;;;;;;23.43;15.89;96037.19;5008751;28;20426;-72
2022/01/16 11:08:33;;;;;;;14.32;12.82;;;;;;;21.25;17.52;96043.50;5008479;28;20025;-74
2022/01/16 11:11:00;;;;;;;16.58;14.05;;;;;;;19.96;18.68;96048.47;5008679;28;20492;-70
2022/01/16 11:13:32;;;;;;;17.55;12.75;;;;;;;20.47;18.12;95989.13;5008764;28;20433;-71
2022/01/16 11:16:03;;;;;;;16.88;13.43;;;;;;;20.82;18.25;96021.91;5009095;28;20515;-70
2022/01/16 11:18:30;;;;;;;17.00;13.45;;;;;;;21.03;17.70;96040.16;5008791;28;20041;-74
2022/01/16 11:25:55;;;;;;;15.68;12.65;;;;;;;25.01;14.93;96019.47;5011360;28;20053;-70
2022/01/16 11:28:23;;;;;;;14.82;12.90;;;;;;;25.38;14.58;96021.66;5010179;28;20109;-70
2022/01/16 11:30:55;;;;;;;17.42;13.55;;;;;;;25.83;14.03;96017.69;5011295;28;20108;-71
2022/01/16 11:33:23;;;;;;;17.83;13.27;;;;;;;23.43;15.20;95997.69;5025806;28;20034;-70
2022/01/16 11:35:53;;;;;;;15.20;13.10;;;;;;;24.17;15.20;96008.75;5011436;28;20021;-72
2022/01/16 11:38:20;;;;;;;16.17;13.85;;;;;;;24.86;14.70;96006.06;5011415;28;20626;-69
2022/01/16 11:40:47;;;;;;;20.73;15.55;;;;;;;24.86;14.91;95990.22;5011919;28;20387;-74
2022/01/16 11:43:38;;;;;;;24.42;17.08;;;;;;;25.53;14.46;95992.81;5011418;28;20442;-69
2022/01/16 11:46:21;;;;;;;18.10;13.27;;;;;;;24.22;14.91;95980.13;5009185;28;20052;-72
2022/01/16 11:49:04;;;;;;;16.23;13.88;;;;;;;25.53;14.08;95994.63;5011710;28;20038;-71
2022/01/16 11:51:35;;;;;;;15.82;13.43;;;;;;;24.66;14.53;95987.91;5011200;28;20531;-72
2022/01/16 11:54:06;;;;;;;17.27;14.85;;;;;;;23.95;15.28;95995.13;5011501;28;20152;-71
2022/01/16 11:56:38;;;;;;;15.32;13.77;;;;;;;25.35;14.33;95990.34;5011144;28;20042;-72
2022/01/16 11:59:15;;;;;;;17.85;14.68;;;;;;;26.69;13.26;95986.25;5010335;28;20049;-73
2022/01/16 12:02:02;;;;;;;19.58;14.82;;;;;;;26.36;13.30;95969.69;5010851;28;20638;-72
2022/01/16 12:04:30;;;;;;;16.35;14.27;;;;;;;26.60;13.64;95985.44;5011180;28;20064;-71
2022/01/16 12:07:22;;;;;;;18.35;14.77;;;;;;;26.51;13.10;95981.16;5011233;28;20022;-69
2022/01/16 12:12:12;;;;;;;19.00;14.20;;;;;;;27.03;12.87;95973.66;5011114;28;20045;-72
2022/01/16 12:15:05;;;;;;;15.27;13.55;;;;;;;25.98;13.38;95980.88;5010198;28;20049;-73
2022/01/16 12:17:51;;;;;;;17.25;14.25;;;;;;;26.08;13.44;95975.41;5011150;28;20080;-72
2022/01/16 12:20:20;;;;;;;19.20;15.50;;;;;;;26.29;13.65;95966.91;5010912;28;20076;-74